createdAt,value
2022-10-29T00:01:23.396Z,97378.47
2022-10-29T00:03:50.896Z,97370.38
2022-10-29T00:06:18.497Z,97367.03
2022-10-29T00:08:46.156Z,97371.84
2022-10-29T00:11:16.231Z,97384.91
2022-10-29T00:13:44.093Z,97380.34
2022-10-29T00:16:12.511Z,97372.00
2022-10-29T00:18:40.262Z,97355.19
2022-10-29T00:21:09.036Z,97350.34
2022-10-29T00:23:37.038Z,97353.59
2022-10-29T00:26:05.019Z,97358.09
2022-10-29T00:28:34.264Z,97356.66
2022-10-29T00:31:03.645Z,97345.09
2022-10-29T00:33:31.170Z,97350.88
2022-10-29T00:35:59.537Z,97351.25
2022-10-29T00:38:27.538Z,97348.78
2022-10-29T00:40:55.129Z,97359.25
2022-10-29T00:43:24.654Z,97364.03
2022-10-29T00:45:55.434Z,97373.78
2022-10-29T00:48:24.278Z,97374.59
2022-10-29T00:50:52.610Z,97378.53
2022-10-29T00:53:22.561Z,97366.56
2022-10-29T00:55:50.060Z,97361.13
2022-10-29T00:58:17.761Z,97365.28
2022-10-29T01:00:45.589Z,97365.28
2022-10-29T01:03:14.832Z,97356.44
2022-10-29T01:05:42.799Z,97361.97
2022-10-29T01:08:11.186Z,97361.13
2022-10-29T01:10:47.840Z,97354.97
2022-10-29T01:13:20.573Z,97351.09
2022-10-29T01:15:52.352Z,97355.31
2022-10-29T01:18:23.645Z,97354.78
2022-10-29T01:21:06.052Z,97355.06
2022-10-29T01:23:45.432Z,97349.34
2022-10-29T01:26:22.796Z,97347.47
2022-10-29T01:29:04.067Z,97348.44
2022-10-29T01:31:36.598Z,97340.19
2022-10-29T01:34:07.592Z,97337.06
2022-10-29T01:36:39.374Z,97339.16
2022-10-29T01:39:09.580Z,97342.09
2022-10-29T01:41:43.234Z,97335.84
2022-10-29T01:44:15.026Z,97336.69
2022-10-29T01:46:47.144Z,97327.75
2022-10-29T01:49:16.955Z,97321.69
2022-10-29T01:51:45.361Z,97326.63
2022-10-29T01:54:13.166Z,97332.94
2022-10-29T01:56:40.677Z,97325.53
2022-10-29T01:59:18.081Z,97321.59
2022-10-29T02:02:03.334Z,97318.66
2022-10-29T02:04:44.020Z,97309.28
2022-10-29T02:07:16.050Z,97311.81
2022-10-29T02:09:49.086Z,97323.69
2022-10-29T02:12:21.101Z,97325.50
2022-10-29T02:14:50.237Z,97318.78
2022-10-29T02:17:19.336Z,97320.59
2022-10-29T02:19:46.906Z,97314.41
2022-10-29T02:22:14.441Z,97309.63
2022-10-29T02:24:41.945Z,97315.63
2022-10-29T02:27:09.429Z,97312.47
2022-10-29T02:29:36.961Z,97309.59
2022-10-29T02:32:04.512Z,97307.91
2022-10-29T02:34:33.869Z,97303.13
2022-10-29T02:37:01.367Z,97309.06
2022-10-29T02:39:28.890Z,97295.97
2022-10-29T02:41:56.440Z,97296.25
2022-10-29T02:44:23.992Z,97304.91
2022-10-29T02:46:51.680Z,97306.22
2022-10-29T02:49:19.247Z,97316.16
2022-10-29T02:51:48.195Z,97305.63
2022-10-29T02:54:15.662Z,97316.59
2022-10-29T02:56:43.234Z,97317.63
2022-10-29T02:59:11.932Z,97306.91
2022-10-29T03:01:39.805Z,97311.69
2022-10-29T03:04:07.416Z,97306.34
2022-10-29T03:06:34.919Z,97311.69
2022-10-29T03:09:03.826Z,97294.41
2022-10-29T03:11:31.838Z,97299.75
2022-10-29T03:13:59.497Z,97296.50
2022-10-29T03:16:26.970Z,97294.22
2022-10-29T03:18:54.519Z,97301.03
2022-10-29T03:21:22.072Z,97304.59
2022-10-29T03:23:49.632Z,97289.09
2022-10-29T03:26:18.855Z,97292.41
2022-10-29T03:31:18.771Z,97298.84
2022-10-29T03:33:46.270Z,97289.56
2022-10-29T03:36:13.881Z,97291.19
2022-10-29T03:38:41.460Z,97301.16
2022-10-29T03:41:10.935Z,97297.63
2022-10-29T03:43:40.375Z,97295.41
2022-10-29T03:46:07.905Z,97294.75
2022-10-29T03:48:35.484Z,97295.81
2022-10-29T03:51:05.899Z,97296.00
2022-10-29T03:53:34.585Z,97297.06
2022-10-29T03:56:02.354Z,97295.28
2022-10-29T03:58:29.922Z,97287.84
2022-10-29T04:00:59.967Z,97288.06
2022-10-29T04:03:28.275Z,97287.25
2022-10-29T04:05:56.081Z,97285.16
2022-10-29T04:08:23.821Z,97286.66
2022-10-29T04:10:51.910Z,97299.00
2022-10-29T04:13:20.450Z,97294.69
2022-10-29T04:15:48.359Z,97286.84
2022-10-29T04:18:17.172Z,97292.00
2022-10-29T04:22:22.915Z,97293.84
2022-10-29T04:28:17.567Z,97296.50
2022-10-29T04:29:07.321Z,97287.28
2022-10-29T04:31:34.902Z,97281.91
2022-10-29T04:34:03.900Z,97282.31
2022-10-29T04:36:31.499Z,97283.09
2022-10-29T04:38:58.978Z,97286.03
2022-10-29T04:41:26.540Z,97288.16
2022-10-29T04:43:54.021Z,97293.75
2022-10-29T04:46:21.613Z,97296.06
2022-10-29T04:48:49.221Z,97293.53
2022-10-29T04:51:21.191Z,97293.09
2022-10-29T04:53:49.215Z,97303.81
2022-10-29T04:56:16.699Z,97306.50
2022-10-29T04:58:44.362Z,97303.25
2022-10-29T05:01:12.252Z,97303.28
2022-10-29T05:03:39.930Z,97302.03
2022-10-29T05:06:08.110Z,97301.63
2022-10-29T05:08:37.010Z,97301.22
2022-10-29T05:11:05.686Z,97293.19
2022-10-29T05:13:33.484Z,97291.94
2022-10-29T05:16:01.039Z,97287.66
2022-10-29T05:18:28.647Z,97289.31
2022-10-29T05:20:56.439Z,97298.09
2022-10-29T05:23:23.925Z,97291.97
2022-10-29T05:25:52.895Z,97299.41
2022-10-29T05:28:21.591Z,97295.69
2022-10-29T05:30:49.524Z,97301.03
2022-10-29T05:33:18.227Z,97298.56
2022-10-29T05:35:45.974Z,97287.84
2022-10-29T05:38:14.601Z,97296.47
2022-10-29T05:40:45.041Z,97294.84
2022-10-29T05:43:14.533Z,97291.31
2022-10-29T05:45:42.463Z,97296.09
2022-10-29T05:50:39.850Z,97296.56
2022-10-29T05:53:08.419Z,97290.97
2022-10-29T05:55:36.225Z,97303.09
2022-10-29T05:58:04.977Z,97299.41
2022-10-29T06:00:35.102Z,97298.13
2022-10-29T06:03:02.769Z,97293.63
2022-10-29T06:05:30.381Z,97299.81
2022-10-29T06:07:58.465Z,97305.66
2022-10-29T06:10:27.091Z,97297.63
2022-10-29T06:12:54.649Z,97294.31
2022-10-29T06:15:22.943Z,97294.94
2022-10-29T06:17:51.862Z,97300.69
2022-10-29T06:20:20.615Z,97299.00
2022-10-29T06:22:48.481Z,97295.69
2022-10-29T06:25:16.009Z,97294.00
2022-10-29T06:27:43.507Z,97297.69
2022-10-29T06:30:11.569Z,97298.63
2022-10-29T06:32:39.055Z,97294.72
2022-10-29T06:35:08.468Z,97295.69
2022-10-29T06:37:38.779Z,97289.72
2022-10-29T06:40:06.914Z,97287.41
2022-10-29T06:42:34.408Z,97285.84
2022-10-29T06:45:01.938Z,97279.81
2022-10-29T06:47:29.497Z,97283.69
2022-10-29T06:49:57.396Z,97270.88
2022-10-29T06:52:26.366Z,97283.84
2022-10-29T06:54:53.916Z,97289.38
2022-10-29T06:57:23.647Z,97291.75
2022-10-29T06:59:51.233Z,97286.16
2022-10-29T07:02:19.786Z,97292.47
2022-10-29T07:04:47.290Z,97295.25
2022-10-29T07:07:14.936Z,97289.69
2022-10-29T07:09:43.848Z,97292.25
2022-10-29T07:12:11.527Z,97293.84
2022-10-29T07:14:38.992Z,97303.19
2022-10-29T07:17:06.490Z,97302.56
2022-10-29T07:19:34.014Z,97296.53
2022-10-29T07:22:01.509Z,97298.69
2022-10-29T07:24:29.171Z,97303.25
2022-10-29T07:26:58.035Z,97305.91
2022-10-29T07:29:25.499Z,97302.19
2022-10-29T07:31:52.969Z,97293.22
2022-10-29T07:34:20.538Z,97301.34
2022-10-29T07:36:48.032Z,97298.53
2022-10-29T07:39:15.537Z,97295.72
2022-10-29T07:41:43.025Z,97296.38
2022-10-29T07:44:11.949Z,97288.56
2022-10-29T07:46:39.458Z,97284.25
2022-10-29T07:49:06.992Z,97290.63
2022-10-29T07:51:34.515Z,97288.97
2022-10-29T07:54:02.055Z,97283.69
2022-10-29T07:56:29.933Z,97296.66
2022-10-29T07:58:57.440Z,97295.31
2022-10-29T08:01:26.478Z,97294.75
2022-10-29T08:03:53.985Z,97303.19
2022-10-29T08:06:22.042Z,97301.66
2022-10-29T08:08:49.530Z,97299.81
2022-10-29T08:11:17.415Z,97302.31
2022-10-29T08:13:45.062Z,97297.16
2022-10-29T08:16:12.701Z,97295.44
2022-10-29T08:18:41.709Z,97295.22
2022-10-29T08:21:09.329Z,97296.66
2022-10-29T08:23:36.823Z,97292.00
2022-10-29T08:26:08.248Z,97295.25
2022-10-29T08:28:39.229Z,97291.75
2022-10-29T08:31:07.774Z,97291.13
2022-10-29T08:33:35.268Z,97288.22
2022-10-29T08:36:04.196Z,97293.03
2022-10-29T08:38:31.847Z,97291.22
2022-10-29T08:41:08.030Z,97282.91
2022-10-29T08:43:48.590Z,97286.56
2022-10-29T08:46:19.141Z,97282.16
2022-10-29T08:48:49.599Z,97284.44
2022-10-29T08:51:21.452Z,97278.53
2022-10-29T08:53:54.460Z,97281.19
2022-10-29T08:56:38.374Z,97285.50
2022-10-29T08:59:07.930Z,97279.03
2022-10-29T09:01:36.655Z,97280.13
2022-10-29T09:04:05.653Z,97284.28
2022-10-29T09:06:40.067Z,97281.53
2022-10-29T09:09:14.470Z,97284.88
2022-10-29T09:11:49.908Z,97274.34
2022-10-29T09:14:28.498Z,97281.03
2022-10-29T09:16:58.620Z,97277.28
2022-10-29T09:19:35.099Z,97275.13
2022-10-29T09:22:09.932Z,97277.13
2022-10-29T09:24:41.477Z,97281.53
2022-10-29T09:27:15.272Z,97266.97
2022-10-29T09:29:47.235Z,97274.91
2022-10-29T09:32:16.700Z,97263.97
2022-10-29T09:34:46.162Z,97266.00
2022-10-29T09:37:17.597Z,97260.13
2022-10-29T09:39:47.457Z,97256.19
2022-10-29T09:42:17.698Z,97258.22
2022-10-29T09:44:50.596Z,97262.56
2022-10-29T09:47:23.733Z,97254.84
2022-10-29T09:50:05.162Z,97255.69
2022-10-29T09:52:38.155Z,97255.41
2022-10-29T09:55:07.293Z,97259.03
2022-10-29T09:57:36.802Z,97257.81
2022-10-29T10:00:06.386Z,97252.50
2022-10-29T10:02:36.318Z,97257.84
2022-10-29T10:05:05.671Z,97257.66
2022-10-29T10:07:33.157Z,97250.97
2022-10-29T10:10:02.638Z,97249.75
2022-10-29T10:12:44.162Z,97240.34
2022-10-29T10:15:30.816Z,97241.00
2022-10-29T10:18:00.294Z,97240.69
2022-10-29T10:20:30.202Z,97234.03
2022-10-29T10:22:58.008Z,97236.59
2022-10-29T10:25:34.323Z,97236.38
2022-10-29T10:28:04.279Z,97234.91
2022-10-29T10:30:31.743Z,97235.72
2022-10-29T10:33:11.513Z,97230.16
2022-10-29T10:35:39.474Z,97228.00
2022-10-29T10:38:11.840Z,97228.47
2022-10-29T10:40:42.586Z,97228.19
2022-10-29T10:43:19.784Z,97220.84
2022-10-29T10:45:52.980Z,97212.16
2022-10-29T10:48:20.742Z,97202.16
2022-10-29T10:50:48.808Z,97213.53
2022-10-29T10:53:18.640Z,97210.84
2022-10-29T10:55:49.896Z,97203.22
2022-10-29T10:58:20.407Z,97192.38
2022-10-29T11:00:52.423Z,97198.81
2022-10-29T11:05:49.323Z,97178.94
2022-10-29T11:08:20.819Z,97187.94
2022-10-29T11:10:52.988Z,97173.84
2022-10-29T11:13:24.195Z,97176.63
2022-10-29T11:15:59.192Z,97179.88
2022-10-29T11:18:34.802Z,97174.50
2022-10-29T11:21:18.175Z,97169.56
2022-10-29T11:23:52.933Z,97164.72
2022-10-29T11:26:29.754Z,97157.94
2022-10-29T11:29:03.650Z,97158.22
2022-10-29T11:31:41.605Z,97151.97
2022-10-29T11:34:17.197Z,97150.59
2022-10-29T11:36:53.447Z,97150.34
2022-10-29T11:39:27.255Z,97141.94
2022-10-29T11:41:59.287Z,97148.44
2022-10-29T11:44:28.102Z,97143.81
2022-10-29T11:47:07.728Z,97142.38
2022-10-29T11:49:54.135Z,97134.56
2022-10-29T11:52:35.535Z,97127.47
2022-10-29T11:55:16.261Z,97126.63
2022-10-29T11:57:49.806Z,97133.72
2022-10-29T12:00:20.341Z,97126.16
2022-10-29T12:03:02.255Z,97122.28
2022-10-29T12:05:36.569Z,97116.25
2022-10-29T12:08:19.537Z,97117.78
2022-10-29T12:10:55.625Z,97115.34
2022-10-29T12:13:37.417Z,97109.56
2022-10-29T12:16:16.392Z,97102.09
2022-10-29T12:18:50.998Z,97103.72
2022-10-29T12:21:28.912Z,97099.75
2022-10-29T12:24:11.677Z,97097.69
2022-10-29T12:26:45.499Z,97099.72
2022-10-29T12:29:20.970Z,97088.72
2022-10-29T12:31:55.912Z,97091.28
2022-10-29T12:34:30.065Z,97087.53
2022-10-29T12:37:09.414Z,97074.84
2022-10-29T12:39:43.807Z,97084.97
2022-10-29T12:42:17.799Z,97088.63
2022-10-29T12:44:52.521Z,97081.75
2022-10-29T12:47:25.428Z,97076.66
2022-10-29T12:50:03.869Z,97081.53
2022-10-29T12:52:39.886Z,97075.34
2022-10-29T12:55:13.512Z,97070.56
2022-10-29T12:57:41.556Z,97074.09
2022-10-29T13:00:54.233Z,97071.41
2022-10-29T13:03:55.500Z,97067.34
2022-10-29T13:06:49.493Z,97054.59
2022-10-29T13:09:19.849Z,97065.97
2022-10-29T13:11:51.121Z,97070.31
2022-10-29T13:14:25.814Z,97068.66
2022-10-29T13:16:55.194Z,97057.84
2022-10-29T13:19:39.598Z,97047.00
2022-10-29T13:25:51.207Z,97060.28
2022-10-29T13:28:54.624Z,97057.28
2022-10-29T13:31:56.734Z,97061.63
2022-10-29T13:34:58.795Z,97053.72
2022-10-29T13:37:54.644Z,97053.97
2022-10-29T13:40:59.349Z,97047.50
2022-10-29T13:43:28.050Z,97049.69
2022-10-29T13:46:30.437Z,97042.66
2022-10-29T13:49:01.415Z,97030.69
2022-10-29T13:51:36.178Z,97048.84
2022-10-29T13:54:09.502Z,97040.97
2022-10-29T13:56:45.209Z,97041.50
2022-10-29T13:59:21.047Z,97034.41
2022-10-29T14:02:06.297Z,97036.84
2022-10-29T14:04:40.056Z,97047.44
2022-10-29T14:07:15.613Z,97036.31
2022-10-29T14:09:47.385Z,97028.25
2022-10-29T14:12:21.761Z,97033.88
2022-10-29T14:14:56.797Z,97034.47
2022-10-29T14:17:25.880Z,97032.84
2022-10-29T14:19:53.778Z,97040.38
2022-10-29T14:22:33.323Z,97034.38
2022-10-29T14:25:02.868Z,97033.38
2022-10-29T14:27:31.074Z,97040.13
2022-10-29T14:30:19.930Z,97032.03
2022-10-29T14:32:48.985Z,97034.69
2022-10-29T14:35:17.637Z,97033.31
2022-10-29T14:37:49.643Z,97029.50
2022-10-29T14:40:21.329Z,97032.19
2022-10-29T14:42:54.452Z,97028.13
2022-10-29T14:45:25.617Z,97029.78
2022-10-29T14:47:56.618Z,97026.25
2022-10-29T14:50:26.754Z,97022.97
2022-10-29T14:52:57.731Z,97037.00
2022-10-29T14:55:29.047Z,97033.75
2022-10-29T14:58:04.485Z,97020.81
2022-10-29T15:00:35.787Z,97018.31
2022-10-29T15:03:07.007Z,97015.59
2022-10-29T15:05:37.157Z,97018.84
2022-10-29T15:08:06.729Z,97020.16
2022-10-29T15:10:46.238Z,97013.41
2022-10-29T15:13:32.542Z,97011.97
2022-10-29T15:16:03.230Z,97024.41
2022-10-29T15:18:34.151Z,97022.50
2022-10-29T15:21:02.839Z,97026.81
2022-10-29T15:23:34.153Z,97023.56
2022-10-29T15:26:04.994Z,97014.38
2022-10-29T15:28:39.419Z,97015.72
2022-10-29T15:31:07.530Z,97017.34
2022-10-29T15:33:38.137Z,97003.22
2022-10-29T15:36:06.911Z,97012.41
2022-10-29T15:39:20.421Z,97010.09
2022-10-29T15:41:50.861Z,97015.69
2022-10-29T15:44:38.128Z,97009.66
2022-10-29T15:47:27.836Z,97009.97
2022-10-29T15:49:56.910Z,97007.22
2022-10-29T15:52:29.499Z,97010.94
2022-10-29T15:54:57.270Z,97009.22
2022-10-29T15:57:25.354Z,97005.66
2022-10-29T15:59:57.104Z,97009.13
2022-10-29T16:02:26.409Z,97010.94
2022-10-29T16:04:54.120Z,97014.13
2022-10-29T16:07:23.218Z,97003.28
2022-10-29T16:09:53.458Z,97013.44
2022-10-29T16:12:21.304Z,97001.69
2022-10-29T16:14:48.972Z,97004.50
2022-10-29T16:17:17.939Z,97005.16
2022-10-29T16:19:45.904Z,97005.00
2022-10-29T16:22:16.014Z,96984.28
2022-10-29T16:24:45.089Z,97004.25
2022-10-29T16:27:18.427Z,97010.94
2022-10-29T16:29:49.493Z,97006.31
2022-10-29T16:32:18.435Z,97002.50
2022-10-29T16:34:46.146Z,97012.47
2022-10-29T16:37:15.545Z,96995.16
2022-10-29T16:39:43.699Z,97002.69
2022-10-29T16:42:30.356Z,97006.69
2022-10-29T16:44:58.281Z,97005.81
2022-10-29T16:47:25.969Z,97001.25
2022-10-29T16:49:53.683Z,97008.75
2022-10-29T16:52:24.120Z,97008.44
2022-10-29T16:54:54.104Z,97011.94
2022-10-29T16:57:23.829Z,97016.72
2022-10-29T16:59:51.519Z,97005.25
2022-10-29T17:02:19.213Z,97019.34
2022-10-29T17:04:46.999Z,97019.53
2022-10-29T17:07:14.713Z,97000.78
2022-10-29T17:09:42.418Z,97022.56
2022-10-29T17:12:10.150Z,97013.38
2022-10-29T17:14:39.333Z,97021.25
2022-10-29T17:17:07.083Z,97023.63
2022-10-29T17:19:34.780Z,97040.09
2022-10-29T17:22:04.266Z,97033.03
2022-10-29T17:24:32.044Z,97036.47
2022-10-29T17:27:00.233Z,97028.06
2022-10-29T17:29:29.460Z,97040.38
2022-10-29T17:34:31.859Z,97022.81
2022-10-29T17:36:59.578Z,97046.16
2022-10-29T17:39:27.441Z,97024.97
2022-10-29T17:41:56.284Z,97023.97
2022-10-29T17:44:26.267Z,97040.13
2022-10-29T17:46:54.155Z,97028.72
2022-10-29T17:49:23.346Z,97046.16
2022-10-29T17:51:51.104Z,97043.72
2022-10-29T17:54:19.915Z,97049.59
2022-10-29T17:56:48.994Z,97032.47
2022-10-29T17:59:16.798Z,97039.47
2022-10-29T18:01:45.071Z,97047.47
2022-10-29T18:04:13.152Z,97039.78
2022-10-29T18:06:42.397Z,97052.28
2022-10-29T18:09:10.285Z,97042.47
2022-10-29T18:11:38.035Z,97054.16
2022-10-29T18:14:07.702Z,97060.38
2022-10-29T18:16:36.745Z,97041.91
2022-10-29T18:19:04.455Z,97054.31
2022-10-29T18:21:32.640Z,97061.81
2022-10-29T18:24:01.696Z,97058.56
2022-10-29T18:26:31.492Z,97056.47
2022-10-29T18:29:00.843Z,97050.81
2022-10-29T18:31:31.602Z,97065.53
2022-10-29T18:34:00.713Z,97064.38
2022-10-29T18:36:28.979Z,97057.34
2022-10-29T18:38:58.607Z,97048.13
2022-10-29T18:41:27.772Z,97038.81
2022-10-29T18:43:55.555Z,97052.72
2022-10-29T18:46:23.341Z,97029.56
2022-10-29T18:48:51.285Z,97043.84
2022-10-29T18:51:24.198Z,97050.88
2022-10-29T18:53:52.133Z,97056.47
2022-10-29T18:56:21.820Z,97038.50
2022-10-29T18:58:51.357Z,97054.59
2022-10-29T19:01:22.643Z,97052.06
2022-10-29T19:03:51.932Z,97048.44
2022-10-29T19:06:20.805Z,97061.31
2022-10-29T19:08:49.030Z,97032.63
2022-10-29T19:11:19.262Z,97049.91
2022-10-29T19:13:52.649Z,97040.34
2022-10-29T19:16:20.756Z,97047.38
2022-10-29T19:18:48.595Z,97062.06
2022-10-29T19:21:18.682Z,97065.72
2022-10-29T19:23:46.763Z,97044.94
2022-10-29T19:26:16.185Z,97066.06
2022-10-29T19:28:44.872Z,97070.53
2022-10-29T19:31:16.387Z,97067.97
2022-10-29T19:33:47.804Z,97053.00
2022-10-29T19:36:15.818Z,97057.31
2022-10-29T19:38:43.965Z,97063.38
2022-10-29T19:41:12.770Z,97076.59
2022-10-29T19:43:40.948Z,97052.34
2022-10-29T19:46:09.685Z,97065.63
2022-10-29T19:48:39.245Z,97080.00
2022-10-29T19:51:07.752Z,97060.63
2022-10-29T19:53:35.697Z,97074.63
2022-10-29T19:56:03.472Z,97062.25
2022-10-29T19:58:33.301Z,97047.19
2022-10-29T20:01:05.327Z,97049.44
2022-10-29T20:03:33.148Z,97073.59
2022-10-29T20:06:02.378Z,97074.41
2022-10-29T20:08:30.569Z,97073.00
2022-10-29T20:10:59.211Z,97066.97
2022-10-29T20:13:27.678Z,97079.09
2022-10-29T20:15:55.985Z,97080.41
2022-10-29T20:18:23.847Z,97088.19
2022-10-29T20:20:55.406Z,97082.59
2022-10-29T20:23:25.662Z,97080.41
2022-10-29T20:25:53.903Z,97080.16
2022-10-29T20:28:21.660Z,97079.00
2022-10-29T20:30:49.420Z,97081.69
2022-10-29T20:33:17.173Z,97072.13
2022-10-29T20:35:45.188Z,97059.13
2022-10-29T20:38:13.097Z,97061.25
2022-10-29T20:40:42.261Z,97087.97
2022-10-29T20:43:10.162Z,97086.09
2022-10-29T20:45:37.978Z,97073.59
2022-10-29T20:48:06.465Z,97073.59
2022-10-29T20:50:34.318Z,97074.66
2022-10-29T20:53:02.096Z,97090.31
2022-10-29T20:55:29.900Z,97091.00
2022-10-29T20:57:59.541Z,97100.69
2022-10-29T21:00:27.649Z,97094.88
2022-10-29T21:02:55.381Z,97077.69
2022-10-29T21:05:23.219Z,97077.34
2022-10-29T21:07:51.007Z,97068.09
2022-10-29T21:10:18.739Z,97096.13
2022-10-29T21:12:46.473Z,97096.69
2022-10-29T21:15:15.802Z,97093.66
2022-10-29T21:17:43.709Z,97098.19
2022-10-29T21:20:11.740Z,97081.47
2022-10-29T21:22:39.443Z,97095.28
2022-10-29T21:25:07.676Z,97065.38
2022-10-29T21:27:35.481Z,97091.19
2022-10-29T21:30:03.228Z,97105.75
2022-10-29T21:32:32.456Z,97099.94
2022-10-29T21:35:00.179Z,97094.56
2022-10-29T21:37:27.930Z,97081.34
2022-10-29T21:39:55.672Z,97096.66
2022-10-29T21:42:23.455Z,97095.47
2022-10-29T21:44:51.196Z,97088.97
2022-10-29T21:47:18.964Z,97083.06
2022-10-29T21:49:51.884Z,97095.78
2022-10-29T21:52:19.887Z,97076.25
2022-10-29T21:54:47.734Z,97096.34
2022-10-29T21:57:15.529Z,97062.91
2022-10-29T21:59:43.274Z,97071.81
2022-10-29T22:02:11.216Z,97095.03
2022-10-29T22:04:39.183Z,97094.34
2022-10-29T22:07:08.295Z,97103.19
2022-10-29T22:09:36.043Z,97094.91
2022-10-29T22:12:03.839Z,97094.44
2022-10-29T22:14:31.522Z,97086.72
2022-10-29T22:17:08.167Z,97095.72
2022-10-29T22:19:35.897Z,97092.97
2022-10-29T22:22:03.621Z,97090.91
2022-10-29T22:24:32.749Z,97076.16
2022-10-29T22:27:00.612Z,97089.03
2022-10-29T22:29:28.608Z,97099.53
2022-10-29T22:31:56.311Z,97084.81
2022-10-29T22:34:24.059Z,97083.16
2022-10-29T22:36:52.470Z,97075.59
2022-10-29T22:39:20.186Z,97079.31
2022-10-29T22:41:49.376Z,97078.28
2022-10-29T22:44:17.141Z,97070.16
2022-10-29T22:46:44.896Z,97073.91
2022-10-29T22:49:12.860Z,97062.75
2022-10-29T22:51:40.610Z,97069.38
2022-10-29T22:54:08.530Z,97068.47
2022-10-29T22:56:38.329Z,97074.25
2022-10-29T22:59:08.197Z,97056.78
2022-10-29T23:01:40.466Z,97073.56
2022-10-29T23:04:12.114Z,97050.19
2022-10-29T23:06:39.914Z,97079.53
2022-10-29T23:09:07.600Z,97080.78
2022-10-29T23:11:39.006Z,97081.84
2022-10-29T23:14:08.198Z,97076.22
2022-10-29T23:16:36.914Z,97077.19
2022-10-29T23:19:06.527Z,97072.16
2022-10-29T23:21:34.537Z,97058.22
2022-10-29T23:24:02.318Z,97061.13
2022-10-29T23:26:30.129Z,97068.25
2022-10-29T23:28:58.011Z,97076.50
2022-10-29T23:31:28.914Z,97061.06
2022-10-29T23:33:58.111Z,97070.97
2022-10-29T23:36:27.867Z,97070.13
2022-10-29T23:38:56.358Z,97056.22
2022-10-29T23:41:24.152Z,97066.94
2022-10-29T23:43:51.943Z,97058.69
2022-10-29T23:46:19.804Z,97040.06
2022-10-29T23:48:48.949Z,97060.69
2022-10-29T23:51:17.137Z,97060.91
2022-10-29T23:53:44.990Z,97056.22
2022-10-29T23:56:12.757Z,97067.25
2022-10-29T23:58:40.463Z,97052.13
